Time;durP1;ratioP1;P1;durP2;ratioP2;P2;SDS_P1;SDS_P2;PMS_P1;PMS_P2;Temp;Humidity;BMP_temperature;BMP_pressure;BME280_temperature;BME280_humidity;BME280_pressure;Samples;Min_cycle;Max_cycle;Signal;HPM_P1;HPM_P2
2023/04/24 00:00:23;;;;;;;3.55;1.25;;;;;;;11.48;68.55;99895.66;15537752;28;20112;-50
2023/04/24 00:07:57;;;;;;;4.35;1.45;;;;;;;11.42;68.94;99883.19;15553604;28;20058;-50
2023/04/24 00:15:30;;;;;;;5.90;1.98;;;;;;;11.45;69.17;99869.25;15537096;28;20037;-50
2023/04/24 00:23:06;;;;;;;2.03;1.48;;;;;;;11.49;69.17;99850.78;15536531;28;20049;-49
2023/04/24 00:30:39;;;;;;;2.75;1.48;;;;;;;11.90;68.03;99843.56;15551415;28;20117;-49
2023/04/24 00:38:14;;;;;;;2.77;1.73;;;;;;;10.99;71.22;99827.16;15525654;28;20046;-49
2023/04/24 00:45:49;;;;;;;4.50;1.65;;;;;;;11.10;71.18;99839.78;15547450;28;20503;-52
2023/04/24 00:53:23;;;;;;;2.10;1.17;;;;;;;11.59;69.14;99837.56;15525472;28;20504;-49
2023/04/24 01:00:57;;;;;;;2.95;1.65;;;;;;;11.29;70.35;99843.13;15534145;28;20046;-51
2023/04/24 01:08:32;;;;;;;1.85;0.85;;;;;;;11.50;70.54;99833.59;15551662;28;20038;-49
2023/04/24 01:16:06;;;;;;;2.42;1.60;;;;;;;12.05;69.67;99813.44;15533397;28;20509;-50
2023/04/24 01:23:42;;;;;;;1.55;0.90;;;;;;;11.94;70.13;99815.13;15546335;28;20569;-51
2023/04/24 01:31:16;;;;;;;2.55;1.38;;;;;;;11.99;69.91;99820.59;15548012;28;20145;-51
2023/04/24 01:38:51;;;;;;;2.63;0.88;;;;;;;11.87;70.36;99801.00;15548771;28;20050;-50
2023/04/24 01:46:25;;;;;;;4.15;1.83;;;;;;;11.97;70.14;99793.13;15522553;28;20337;-48
2023/04/24 01:54:00;;;;;;;2.42;1.10;;;;;;;11.97;70.01;99799.31;15534964;28;20046;-50
2023/04/24 02:01:35;;;;;;;2.78;1.90;;;;;;;12.16;68.85;99794.50;15531576;28;20509;-48
2023/04/24 02:09:10;;;;;;;2.22;1.50;;;;;;;12.16;69.25;99793.69;15530586;28;20073;-50
2023/04/24 02:16:43;;;;;;;2.97;2.00;;;;;;;12.08;68.92;99784.19;15528253;28;20038;-49
2023/04/24 02:24:18;;;;;;;2.83;1.63;;;;;;;11.72;70.46;99782.69;15548406;28;20053;-51
2023/04/24 02:31:50;;;;;;;5.00;1.85;;;;;;;11.73;71.03;99787.81;15530966;28;20034;-45
2023/04/24 02:39:25;;;;;;;2.03;1.65;;;;;;;11.56;71.51;99794.19;15510798;28;20495;-48
2023/04/24 02:46:59;;;;;;;4.00;2.20;;;;;;;11.15;73.28;99782.69;15547392;28;20073;-49
2023/04/24 02:54:33;;;;;;;3.77;1.57;;;;;;;11.40;72.71;99780.47;15571593;28;20049;-49
2023/04/24 03:02:25;;;;;;;;;;;;;;;11.80;71.28;99789.53;15550002;28;20046;-55
2023/04/24 03:09:59;;;;;;;2.90;1.10;;;;;;;12.05;70.65;99786.53;15531638;28;19933;-50
2023/04/24 03:17:33;;;;;;;3.45;1.50;;;;;;;11.75;71.46;99790.28;15541027;28;20046;-47
2023/04/24 03:25:10;;;;;;;3.25;1.35;;;;;;;12.11;70.46;99782.84;15558273;28;20038;-49
2023/04/24 03:32:43;;;;;;;1.48;1.05;;;;;;;12.17;70.40;99788.09;15543528;23;20046;-49
2023/04/24 03:40:21;;;;;;;4.32;1.02;;;;;;;12.03;71.40;99791.31;15579168;28;20037;-51
2023/04/24 03:47:54;;;;;;;3.80;1.33;;;;;;;12.29;70.48;99781.81;15490807;28;20043;-49
2023/04/24 03:55:29;;;;;;;3.20;1.70;;;;;;;12.20;70.38;99790.28;15487002;28;20129;-50
2023/04/24 04:03:05;;;;;;;2.13;1.52;;;;;;;12.29;70.07;99779.94;15506095;28;20042;-48
2023/04/24 04:10:40;;;;;;;2.38;1.33;;;;;;;12.22;70.46;99788.19;15483216;28;20041;-50
2023/04/24 04:18:13;;;;;;;2.03;1.23;;;;;;;12.30;70.13;99780.75;15510434;28;20561;-51
2023/04/24 04:25:47;;;;;;;2.08;1.00;;;;;;;12.19;70.26;99779.78;15539051;28;20050;-49
2023/04/24 04:33:23;;;;;;;2.50;1.08;;;;;;;12.33;69.74;99794.53;15466305;28;20047;-49
2023/04/24 04:40:58;;;;;;;1.95;0.75;;;;;;;12.12;69.98;99787.16;15494941;28;20047;-48
2023/04/24 04:48:36;;;;;;;1.25;0.70;;;;;;;12.11;70.65;99782.84;15504922;28;20254;-49
2023/04/24 04:56:13;;;;;;;0.82;0.65;;;;;;;12.23;69.61;99784.41;15481135;28;20038;-48
2023/04/24 05:03:49;;;;;;;1.15;0.85;;;;;;;12.07;70.63;99797.84;15484703;28;20062;-51
2023/04/24 05:11:27;;;;;;;1.38;0.98;;;;;;;12.16;69.88;99793.69;15441440;28;20057;-48
2023/04/24 05:19:03;;;;;;;2.05;0.93;;;;;;;12.09;70.22;99799.25;15469566;28;20053;-49
2023/04/24 05:26:42;;;;;;;0.95;0.40;;;;;;;12.49;69.08;99803.66;15440466;28;20038;-50
2023/04/24 05:34:20;;;;;;;0.75;0.55;;;;;;;13.13;66.96;99809.41;15454196;28;20518;-51
2023/04/24 05:41:59;;;;;;;1.77;0.85;;;;;;;12.77;67.44;99800.84;15441798;28;20138;-50
2023/04/24 05:49:32;;;;;;;1.10;0.75;;;;;;;12.93;67.16;99820.75;15475549;28;20039;-51
2023/04/24 05:57:07;;;;;;;0.75;0.57;;;;;;;13.70;65.05;99816.31;15446912;28;20082;-51
2023/04/24 06:04:57;;;;;;;0.70;0.38;;;;;;;14.18;63.35;99826.25;15476277;28;20092;-49
2023/04/24 06:12:32;;;;;;;0.93;0.40;;;;;;;14.88;60.51;99835.19;15485596;28;20378;-49
2023/04/24 06:20:12;;;;;;;0.82;0.43;;;;;;;16.90;54.83;99831.63;15454770;28;20528;-50
2023/04/24 06:27:46;;;;;;;0.43;0.10;;;;;;;17.81;52.40;99827.75;15492697;28;20072;-50
2023/04/24 06:35:19;;;;;;;1.15;0.10;;;;;;;18.36;49.73;99850.22;15491137;28;20039;-52
2023/04/24 06:42:54;;;;;;;0.90;0.20;;;;;;;16.87;53.25;99832.16;15485853;28;20061;-50
2023/04/24 06:50:27;;;;;;;0.40;0.32;;;;;;;16.75;52.96;99835.97;15523146;28;20137;-52
2023/04/24 06:58:02;;;;;;;0.10;0.10;;;;;;;15.72;57.10;99841.56;15512764;28;20035;-49
2023/04/24 07:05:35;;;;;;;0.40;0.13;;;;;;;18.38;49.04;99839.06;15505222;28;20074;-49
2023/04/24 07:13:09;;;;;;;0.10;0.10;;;;;;;18.77;47.38;99834.38;15473487;28;20050;-50
2023/04/24 07:20:42;;;;;;;0.22;0.13;;;;;;;21.03;41.73;99827.41;15494087;28;20053;-49
2023/04/24 07:28:17;;;;;;;0.30;0.13;;;;;;;18.75;46.37;99836.59;15510557;28;20050;-48
2023/04/24 07:35:51;;;;;;;0.20;0.10;;;;;;;20.25;42.85;99834.47;15487921;28;20104;-52
2023/04/24 07:43:25;;;;;;;0.30;0.10;;;;;;;22.66;38.96;99821.91;15455865;28;20085;-51
2023/04/24 07:51:00;;;;;;;0.00;0.00;;;;;;;20.31;41.42;99815.00;15502540;28;20410;-49
2023/04/24 07:58:35;;;;;;;0.28;0.20;;;;;;;19.41;43.85;99818.75;15537580;28;20038;-52
2023/04/24 08:06:08;;;;;;;0.17;0.17;;;;;;;19.09;43.88;99817.47;15531798;28;20042;-49
2023/04/24 08:13:43;;;;;;;0.38;0.20;;;;;;;18.92;44.42;99816.31;15476206;28;20148;-48
2023/04/24 08:21:18;;;;;;;0.10;0.10;;;;;;;18.41;45.76;99823.00;15495512;28;20107;-50
2023/04/24 08:28:52;;;;;;;0.10;0.10;;;;;;;18.82;45.70;99822.66;15480337;28;20057;-50
2023/04/24 08:36:25;;;;;;;0.85;0.50;;;;;;;18.36;47.02;99823.84;15471570;28;20047;-49
2023/04/24 08:44:02;;;;;;;0.32;0.10;;;;;;;17.59;48.75;99825.41;15480803;28;20101;-48
2023/04/24 08:51:37;;;;;;;1.55;0.13;;;;;;;17.03;50.04;99831.88;15499992;28;20471;-48
2023/04/24 08:59:12;;;;;;;0.38;0.10;;;;;;;16.73;51.00;99832.72;15501925;28;20081;-49
2023/04/24 09:06:45;;;;;;;0.00;0.00;;;;;;;17.32;50.05;99836.66;15508336;28;20042;-49
2023/04/24 09:14:20;;;;;;;0.10;0.10;;;;;;;17.46;48.83;99826.81;15511244;28;20415;-48
2023/04/24 09:21:54;;;;;;;0.17;0.10;;;;;;;18.72;45.82;99826.28;15488635;28;20053;-51
2023/04/24 09:29:28;;;;;;;0.30;0.10;;;;;;;17.42;47.59;99842.03;15514260;28;20503;-52
2023/04/24 09:37:02;;;;;;;0.25;0.22;;;;;;;18.20;46.89;99840.56;15516508;28;20088;-51
2023/04/24 09:44:37;;;;;;;0.10;0.05;;;;;;;17.19;49.42;99834.53;15516457;28;20054;-51
2023/04/24 09:52:12;;;;;;;0.40;0.30;;;;;;;18.13;47.54;99834.63;15494786;28;20104;-52
2023/04/24 09:59:47;;;;;;;3.78;0.40;;;;;;;18.51;47.40;99825.66;15518930;28;20049;-52
2023/04/24 10:07:21;;;;;;;4.28;0.20;;;;;;;17.70;47.92;99829.69;15499596;28;20474;-52
2023/04/24 10:14:55;;;;;;;;;;;;;;;16.81;49.57;99829.47;15506026;28;20392;-51
2023/04/24 10:22:30;;;;;;;0.08;0.00;;;;;;;16.66;49.91;99836.78;15513355;28;19929;-52
2023/04/24 10:30:06;;;;;;;0.47;0.15;;;;;;;16.16;52.02;99831.06;15516564;28;20043;-50
2023/04/24 10:37:42;;;;;;;0.65;0.30;;;;;;;15.96;52.29;99820.22;15457231;28;20125;-51
2023/04/24 10:45:21;;;;;;;0.55;0.30;;;;;;;17.60;50.02;99814.28;15442696;28;20054;-51
2023/04/24 10:53:05;;;;;;;0.45;0.03;;;;;;;19.11;45.79;99815.25;15473052;28;20721;-52
2023/04/24 11:00:41;;;;;;;0.30;0.28;;;;;;;17.97;46.39;99804.06;15446857;28;20050;-51
2023/04/24 11:08:15;;;;;;;0.10;0.10;;;;;;;16.92;48.59;99808.56;15488224;28;20057;-49
2023/04/24 11:16:13;;;;;;;0.38;0.20;;;;;;;17.07;49.92;99813.16;15489267;28;20137;-50
2023/04/24 11:23:46;;;;;;;1.58;0.50;;;;;;;16.96;52.49;99806.13;15513699;28;20058;-51
2023/04/24 11:31:38;;;;;;;0.20;0.20;;;;;;;16.96;53.74;99816.97;15530404;28;20092;-51
2023/04/24 11:39:11;;;;;;;0.98;0.32;;;;;;;16.57;54.53;99814.84;15543930;28;20042;-52
2023/04/24 11:46:45;;;;;;;;;;;;;;;17.17;52.88;99807.69;15502793;28;20038;-51
2023/04/24 11:54:21;;;;;;;0.45;0.30;;;;;;;18.47;46.87;99783.84;15450630;28;19953;-53
2023/04/24 12:01:56;;;;;;;0.00;0.00;;;;;;;18.55;37.75;99795.97;15511530;28;20050;-50
2023/04/24 12:09:29;;;;;;;0.30;0.15;;;;;;;18.44;38.31;99791.72;15498313;28;20134;-53
2023/04/24 12:17:04;;;;;;;0.52;0.32;;;;;;;18.12;38.07;99795.78;15515417;28;20034;-50
2023/04/24 12:24:57;;;;;;;0.40;0.30;;;;;;;20.37;34.57;99796.66;15503609;28;20052;-50
2023/04/24 12:32:32;;;;;;;0.22;0.10;;;;;;;19.04;34.77;99798.50;15518553;28;20384;-50
2023/04/24 12:40:07;;;;;;;0.47;0.10;;;;;;;18.66;35.73;99792.06;15500345;28;20055;-51
2023/04/24 12:47:43;;;;;;;0.30;0.10;;;;;;;19.32;32.11;99791.34;15519977;28;20030;-51
2023/04/24 12:55:16;;;;;;;0.10;0.10;;;;;;;19.53;34.33;99794.63;15500352;28;20073;-52
2023/04/24 13:02:51;;;;;;;0.45;0.20;;;;;;;20.44;33.55;99788.91;15466851;28;20050;-50
2023/04/24 13:10:24;;;;;;;0.20;0.15;;;;;;;19.41;29.65;99709.06;15490249;28;20052;-52
2023/04/24 13:17:58;;;;;;;0.10;0.10;;;;;;;19.44;33.11;99795.56;15471063;28;20046;-50
2023/04/24 13:25:37;;;;;;;0.40;0.20;;;;;;;19.74;31.60;99805.28;15472153;28;20038;-50
2023/04/24 13:33:11;;;;;;;0.00;0.00;;;;;;;18.67;34.56;99793.69;15512114;28;20730;-48
2023/04/24 13:40:44;;;;;;;0.52;0.22;;;;;;;18.31;35.03;99785.84;15464993;28;20062;-50
2023/04/24 13:48:18;;;;;;;0.08;0.00;;;;;;;18.31;34.46;99785.03;15491795;28;20050;-49
2023/04/24 13:55:51;;;;;;;0.63;0.10;;;;;;;18.26;34.88;99764.16;15471619;28;20355;-52
2023/04/24 14:03:26;;;;;;;0.40;0.22;;;;;;;18.61;32.37;99776.63;15487578;28;20042;-51
2023/04/24 14:10:59;;;;;;;0.40;0.20;;;;;;;18.67;33.32;99790.16;15469979;28;20050;-49
2023/04/24 14:18:34;;;;;;;0.05;0.00;;;;;;;18.00;35.44;99788.00;15494469;28;20057;-50
2023/04/24 14:26:07;;;;;;;0.43;0.20;;;;;;;17.40;35.67;99794.59;15508721;28;20046;-50
2023/04/24 14:33:41;;;;;;;;;;;;;;;17.89;35.63;99794.59;15526363;28;20091;-53
2023/04/24 14:41:15;;;;;;;0.15;0.10;;;;;;;17.48;36.70;99797.50;15500569;28;20028;-50
2023/04/24 14:48:49;;;;;;;0.75;0.30;;;;;;;17.04;36.43;99800.13;15515971;28;20050;-51
2023/04/24 14:56:22;;;;;;;1.15;0.35;;;;;;;16.96;36.78;99797.97;15480964;28;20043;-49
2023/04/24 15:03:56;;;;;;;;;;;;;;;16.84;36.21;99822.69;15515822;28;20053;-52
2023/04/24 15:11:30;;;;;;;0.73;0.20;;;;;;;16.19;38.01;99824.31;15529628;28;19929;-51
2023/04/24 15:19:04;;;;;;;1.15;0.43;;;;;;;16.36;38.65;99815.91;15483368;28;20507;-51
2023/04/24 15:26:37;;;;;;;0.57;0.10;;;;;;;16.39;38.23;99821.59;15488873;28;20070;-50
2023/04/24 15:34:12;;;;;;;0.15;0.15;;;;;;;15.89;38.08;99828.59;15521650;28;20230;-50
2023/04/24 15:41:45;;;;;;;1.10;0.20;;;;;;;15.84;38.82;99828.59;15507647;28;20104;-53
2023/04/24 15:49:20;;;;;;;1.02;0.35;;;;;;;15.98;38.84;99835.09;15493832;28;20042;-50
2023/04/24 15:56:55;;;;;;;0.10;0.10;;;;;;;15.90;39.18;99832.09;15487779;28;20078;-49
2023/04/24 16:04:30;;;;;;;0.50;0.50;;;;;;;15.60;39.80;99827.41;15478762;28;20143;-51
2023/04/24 16:12:03;;;;;;;0.70;0.38;;;;;;;15.40;40.02;99849.78;15502055;28;20556;-51
2023/04/24 16:19:39;;;;;;;0.08;0.08;;;;;;;15.22;41.47;99851.84;15489476;28;20050;-51
2023/04/24 16:27:12;;;;;;;0.20;0.20;;;;;;;15.28;42.29;99864.31;15474002;28;20049;-47
2023/04/24 16:34:46;;;;;;;0.73;0.30;;;;;;;14.32;46.95;99906.81;15484584;28;20507;-49
2023/04/24 16:42:21;;;;;;;0.10;0.10;;;;;;;13.68;49.80;99915.53;15469915;28;20499;-47
2023/04/24 16:49:55;;;;;;;0.70;0.30;;;;;;;13.45;50.85;99922.78;15503776;28;20053;-47
2023/04/24 16:57:28;;;;;;;0.08;0.03;;;;;;;13.15;51.90;99928.56;15502616;28;20130;-48
2023/04/24 17:05:02;;;;;;;0.50;0.25;;;;;;;13.14;52.96;99928.78;15450836;28;20038;-48
2023/04/24 17:12:36;;;;;;;0.30;0.10;;;;;;;12.82;53.81;99963.56;15474970;28;20076;-51
2023/04/24 17:20:12;;;;;;;0.30;0.20;;;;;;;12.70;53.64;99972.53;15491318;28;20057;-49
2023/04/24 17:27:45;;;;;;;0.20;0.20;;;;;;;12.64;53.33;99975.41;15468545;28;20062;-48
2023/04/24 17:35:19;;;;;;;0.22;0.22;;;;;;;12.36;53.65;99984.31;15440639;28;20046;-48
2023/04/24 17:42:53;;;;;;;0.22;0.00;;;;;;;12.36;54.04;100000.44;15445472;28;20049;-50
2023/04/24 17:50:27;;;;;;;0.30;0.13;;;;;;;12.13;53.28;100020.19;15515300;28;20053;-48
2023/04/24 17:58:01;;;;;;;0.50;0.30;;;;;;;11.89;52.87;100022.91;15499517;28;20058;-47
2023/04/24 18:05:37;;;;;;;0.35;0.20;;;;;;;11.40;54.04;100037.63;15487668;28;20042;-47
2023/04/24 18:13:11;;;;;;;0.38;0.17;;;;;;;11.47;53.69;100057.97;15505910;28;20818;-50
2023/04/24 18:20:45;;;;;;;0.10;0.10;;;;;;;11.13;54.52;100091.75;15474458;28;20050;-49
2023/04/24 18:28:18;;;;;;;0.08;0.00;;;;;;;10.67;54.93;100103.97;15484956;28;20046;-49
2023/04/24 18:35:53;;;;;;;0.07;0.00;;;;;;;10.78;54.58;100113.13;15533532;28;20061;-53
2023/04/24 18:43:26;;;;;;;0.00;0.00;;;;;;;10.82;54.51;100143.00;15474790;28;20312;-52
2023/04/24 18:51:00;;;;;;;0.10;0.10;;;;;;;10.73;55.30;100153.25;15482348;28;20054;-49
2023/04/24 18:58:33;;;;;;;0.20;0.10;;;;;;;10.47;56.17;100157.06;15480894;28;20031;-50
2023/04/24 19:06:08;;;;;;;0.00;0.00;;;;;;;10.25;57.19;100166.59;15491132;28;20046;-51
2023/04/24 19:13:41;;;;;;;0.00;0.00;;;;;;;10.45;56.58;100177.94;15499507;28;20058;-50
2023/04/24 19:21:15;;;;;;;0.17;0.17;;;;;;;10.03;57.68;100184.94;15490236;28;20046;-48
2023/04/24 19:28:48;;;;;;;0.32;0.10;;;;;;;10.11;56.66;100190.81;15513116;28;20038;-47
2023/04/24 19:36:23;;;;;;;0.60;0.60;;;;;;;9.75;57.60;100206.84;15523760;28;20074;-46
2023/04/24 19:43:56;;;;;;;0.10;0.10;;;;;;;9.67;56.89;100155.13;15532909;28;20108;-49
2023/04/24 19:51:31;;;;;;;1.88;0.73;;;;;;;9.88;57.13;100193.31;15455081;28;20058;-49
2023/04/24 19:59:04;;;;;;;9.82;0.57;;;;;;;9.81;57.69;100192.56;15468108;28;20070;-48
2023/04/24 20:06:38;;;;;;;0.57;0.40;;;;;;;9.83;57.93;100203.84;15479982;28;20047;-51
2023/04/24 20:14:11;;;;;;;0.20;0.08;;;;;;;10.05;57.54;100190.91;15490360;28;20481;-51
2023/04/24 20:21:46;;;;;;;1.92;0.55;;;;;;;9.90;58.31;100194.72;15495932;28;20201;-48
2023/04/24 20:29:19;;;;;;;0.20;0.20;;;;;;;9.50;59.67;100198.75;15526200;28;20081;-47
2023/04/24 20:36:55;;;;;;;0.93;0.32;;;;;;;9.71;59.03;100193.84;15511416;28;20505;-53
2023/04/24 20:44:28;;;;;;;0.65;0.45;;;;;;;9.71;59.52;100185.00;15512909;28;20147;-47
2023/04/24 20:52:02;;;;;;;0.47;0.37;;;;;;;9.57;60.01;100195.00;15485436;28;20058;-51
2023/04/24 20:59:35;;;;;;;0.57;0.45;;;;;;;9.49;60.74;100189.06;15482566;28;20059;-49
2023/04/24 21:07:11;;;;;;;0.68;0.50;;;;;;;9.44;60.91;100187.03;15480535;28;20121;-48
2023/04/24 21:14:44;;;;;;;0.50;0.25;;;;;;;9.33;61.71;100190.41;15473172;28;20110;-46
2023/04/24 21:22:19;;;;;;;1.00;0.70;;;;;;;9.14;62.85;100194.84;15478031;28;20050;-49
2023/04/24 21:29:52;;;;;;;0.80;0.60;;;;;;;9.09;63.37;100191.97;15480651;28;20050;-48
2023/04/24 21:37:28;;;;;;;4.03;0.50;;;;;;;8.89;64.05;100189.41;15457038;28;20039;-46
2023/04/24 21:45:01;;;;;;;0.55;0.43;;;;;;;9.10;63.03;100193.63;15496860;28;20485;-48
2023/04/24 21:52:35;;;;;;;1.20;0.93;;;;;;;9.05;63.61;100186.25;15479612;28;20130;-50
2023/04/24 22:00:10;;;;;;;7.35;0.68;;;;;;;8.85;64.02;100185.50;15471070;28;20046;-48
2023/04/24 22:07:45;;;;;;;2.85;0.45;;;;;;;8.76;64.77;100190.25;15447322;28;20081;-50
2023/04/24 22:15:18;;;;;;;1.10;0.43;;;;;;;8.75;65.01;100183.28;15480385;28;20125;-46
2023/04/24 22:22:53;;;;;;;0.60;0.50;;;;;;;8.73;64.79;100197.91;15550783;23;20045;-51
2023/04/24 22:30:25;;;;;;;0.75;0.63;;;;;;;8.32;66.16;100199.00;15546091;28;20117;-48
2023/04/24 22:38:00;;;;;;;0.37;0.37;;;;;;;8.51;65.55;100202.72;15538176;28;20527;-51
2023/04/24 22:45:33;;;;;;;1.63;0.52;;;;;;;8.60;65.00;100198.78;15529345;28;20078;-51
2023/04/24 22:53:07;;;;;;;0.53;0.53;;;;;;;8.74;64.32;100207.56;15505576;28;20132;-55
2023/04/24 23:00:41;;;;;;;1.90;1.08;;;;;;;9.13;63.28;100206.56;15529570;28;20046;-51
2023/04/24 23:08:15;;;;;;;0.20;0.20;;;;;;;8.95;64.00;100193.88;15547021;28;20526;-52
2023/04/24 23:15:50;;;;;;;1.33;0.60;;;;;;;8.93;63.05;100193.28;15547088;28;20322;-52
2023/04/24 23:23:25;;;;;;;0.93;0.37;;;;;;;9.20;61.88;100183.28;15552137;28;20057;-54
2023/04/24 23:30:58;;;;;;;0.80;0.63;;;;;;;8.77;61.33;100177.72;15558626;28;20056;-51
2023/04/24 23:38:34;;;;;;;2.40;0.38;;;;;;;8.89;60.36;100173.34;15540522;28;20133;-51
2023/04/24 23:46:07;;;;;;;1.38;0.80;;;;;;;8.60;60.82;100188.06;15558551;28;20049;-51
2023/04/24 23:53:42;;;;;;;0.00;0.00;;;;;;;8.77;58.69;100183.09;15558275;28;20050;-50
